Terminal Aerodrome Forecast
Issued by NWS

Home | Current Version | Previous Version | Text Only | Print | Product List | Glossary On
Versions: 1 2 3 4 5 6 7 8 9 10 11 12 13 14 15 16 17
000
FTUS42 KJAX 271120
TAFCRG
TAF
KCRG 271120Z 2712/2812 04007KT P6SM VCSH FEW025 SCT040
      TEMPO 2712/2714 SHRA BKN025
     FM271400 09010KT P6SM VCSH SCT030 BKN050
     FM271800 09013G21KT P6SM VCSH BKN040 BKN250
     FM280000 08006KT P6SM FEW040 SCT100=

USA.gov is the U.S. government's official web portal to all federal, state and local government web resources and services.